createdAt,value
2018-01-14T00:04:42.902Z,28.17
2018-01-14T00:09:47.265Z,25.90
2018-01-14T00:14:50.662Z,28.20
2018-01-14T00:19:54.382Z,24.53
2018-01-14T00:24:57.109Z,23.70
2018-01-14T00:30:00.428Z,23.27
2018-01-14T00:35:03.186Z,24.20
2018-01-14T00:40:06.595Z,23.07
2018-01-14T00:45:09.279Z,24.47
2018-01-14T00:50:12.526Z,27.23
2018-01-14T00:55:15.165Z,27.13
2018-01-14T01:00:18.265Z,24.53
2018-01-14T01:05:21.678Z,25.13
2018-01-14T01:10:25.812Z,26.10
2018-01-14T01:15:28.570Z,26.13
2018-01-14T01:20:31.836Z,20.47
2018-01-14T01:25:34.472Z,23.03
2018-01-14T01:30:37.648Z,22.17
2018-01-14T01:35:40.449Z,19.47
2018-01-14T01:40:44.118Z,19.67
2018-01-14T01:45:46.916Z,21.50
2018-01-14T01:50:50.472Z,22.40
2018-01-14T01:55:54.045Z,21.93
2018-01-14T02:00:57.536Z,24.53
2018-01-14T02:06:00.381Z,22.87
2018-01-14T02:11:04.156Z,24.03
2018-01-14T02:16:06.877Z,20.60
2018-01-14T02:21:09.983Z,22.97
2018-01-14T02:26:12.644Z,24.07
2018-01-14T02:31:15.449Z,22.50
2018-01-14T02:36:18.210Z,25.20
2018-01-14T02:41:21.492Z,20.27
2018-01-14T02:46:24.198Z,21.80
2018-01-14T02:51:27.725Z,22.37
2018-01-14T02:56:30.709Z,23.63
2018-01-14T03:01:34.861Z,23.60
2018-01-14T03:06:37.572Z,23.77
2018-01-14T03:11:40.348Z,21.10
2018-01-14T03:16:43.040Z,21.80
2018-01-14T03:21:47.279Z,20.70
2018-01-14T03:26:49.934Z,20.37
2018-01-14T03:31:53.421Z,21.37
2018-01-14T03:36:56.134Z,21.90
2018-01-14T03:41:59.193Z,22.93
2018-01-14T03:47:01.932Z,22.17
2018-01-14T03:52:05.344Z,23.60
2018-01-14T03:57:07.972Z,19.97
2018-01-14T04:02:13.273Z,22.37
2018-01-14T04:07:16.712Z,23.33
2018-01-14T04:12:20.461Z,21.17
2018-01-14T04:17:23.985Z,23.80
2018-01-14T04:22:27.366Z,23.97
2018-01-14T04:27:30.848Z,24.23
2018-01-14T04:32:34.113Z,25.00
2018-01-14T04:37:37.110Z,26.37
2018-01-14T04:42:40.451Z,24.77
2018-01-14T04:47:43.453Z,23.23
2018-01-14T04:52:46.565Z,25.77
2018-01-14T04:57:49.585Z,27.37
2018-01-14T05:02:52.601Z,26.53
2018-01-14T05:07:55.278Z,24.63
2018-01-14T05:12:58.975Z,24.70
2018-01-14T05:18:02.596Z,25.30
2018-01-14T05:23:06.931Z,25.27
2018-01-14T05:28:10.371Z,21.30
2018-01-14T05:33:13.392Z,21.70
2018-01-14T05:38:16.198Z,21.17
2018-01-14T05:43:19.700Z,20.07
2018-01-14T05:48:22.533Z,20.60
2018-01-14T05:53:25.398Z,18.83
2018-01-14T05:58:28.069Z,15.57
2018-01-14T06:03:31.616Z,16.97
2018-01-14T06:08:34.261Z,17.67
2018-01-14T06:13:37.942Z,19.53
2018-01-14T06:18:40.746Z,11.30
2018-01-14T06:23:43.852Z,12.53
2018-01-14T06:28:46.476Z,12.23
2018-01-14T06:33:49.965Z,12.07
2018-01-14T06:38:52.773Z,11.77
2018-01-14T06:43:55.808Z,12.53
2018-01-14T06:48:58.581Z,13.97
2018-01-14T06:54:02.411Z,13.07
2018-01-14T06:59:05.090Z,12.83
2018-01-14T07:04:08.956Z,13.00
2018-01-14T07:09:11.640Z,13.27
2018-01-14T07:14:14.755Z,15.60
2018-01-14T07:19:17.409Z,13.73
2018-01-14T07:24:20.299Z,13.37
2018-01-14T07:29:23.831Z,15.23
2018-01-14T07:34:28.090Z,15.60
2018-01-14T07:39:31.470Z,13.53
2018-01-14T07:44:35.076Z,17.27
2018-01-14T07:49:40.604Z,15.90
2018-01-14T07:54:46.129Z,13.53
2018-01-14T07:59:51.908Z,13.90
2018-01-14T08:04:56.489Z,17.13
2018-01-14T08:10:03.048Z,16.07
2018-01-14T08:15:07.427Z,13.83
2018-01-14T08:20:13.837Z,16.10
2018-01-14T08:25:17.946Z,13.20
2018-01-14T08:30:20.604Z,16.10
2018-01-14T08:40:32.587Z,16.10
2018-01-14T08:45:44.811Z,16.27
2018-01-14T08:50:49.180Z,15.83
2018-01-14T08:55:52.810Z,16.70
2018-01-14T09:00:55.501Z,16.17
2018-01-14T09:05:59.521Z,15.57
2018-01-14T09:11:02.197Z,18.00
2018-01-14T09:16:08.802Z,16.07
2018-01-14T09:21:12.344Z,15.40
2018-01-14T09:26:16.053Z,15.43
2018-01-14T09:31:18.704Z,16.43
2018-01-14T09:36:22.238Z,17.83
2018-01-14T09:41:24.986Z,15.60
2018-01-14T09:46:29.417Z,15.13
2018-01-14T09:51:32.523Z,16.17
2018-01-14T09:56:35.274Z,17.00
2018-01-14T10:01:38.740Z,17.27
2018-01-14T10:06:42.409Z,17.60
2018-01-14T10:11:45.276Z,16.17
2018-01-14T10:16:48.792Z,16.63
2018-01-14T10:21:52.414Z,15.73
2018-01-14T10:26:56.138Z,18.27
2018-01-14T10:32:00.020Z,13.87
2018-01-14T10:37:03.050Z,18.60
2018-01-14T10:42:06.488Z,15.60
2018-01-14T10:47:09.860Z,15.73
2018-01-14T10:52:13.253Z,15.43
2018-01-14T10:57:16.298Z,16.70
2018-01-14T11:02:18.963Z,15.77
2018-01-14T11:07:22.557Z,15.70
2018-01-14T11:12:25.467Z,13.80
2018-01-14T11:17:29.183Z,13.47
2018-01-14T11:22:34.863Z,14.13
2018-01-14T11:27:38.389Z,13.17
2018-01-14T11:32:51.459Z,14.93
2018-01-14T11:37:55.383Z,14.17
2018-01-14T11:42:58.168Z,14.03
2018-01-14T11:48:01.760Z,14.90
2018-01-14T11:53:05.213Z,14.90
2018-01-14T11:58:10.344Z,14.60
2018-01-14T12:03:13.139Z,13.83
2018-01-14T12:08:17.499Z,14.83
2018-01-14T12:13:20.297Z,13.23
2018-01-14T12:18:23.517Z,13.90
2018-01-14T12:23:26.300Z,14.83
2018-01-14T12:28:29.461Z,13.83
2018-01-14T12:33:45.481Z,12.63
2018-01-14T12:38:48.436Z,12.77
2018-01-14T12:43:51.242Z,12.43
2018-01-14T12:48:54.454Z,13.37
2018-01-14T12:53:57.249Z,16.77
2018-01-14T12:58:59.913Z,14.33
2018-01-14T13:04:02.649Z,14.37
2018-01-14T13:09:06.198Z,14.90
2018-01-14T13:14:08.866Z,14.93
2018-01-14T13:19:12.279Z,17.70
2018-01-14T13:24:15.087Z,15.87
2018-01-14T13:29:18.392Z,14.10
2018-01-14T13:34:26.960Z,14.20
2018-01-14T13:39:30.685Z,15.83
2018-01-14T13:44:33.338Z,16.10
2018-01-14T13:49:36.810Z,17.10
2018-01-14T13:54:40.345Z,16.57
2018-01-14T13:59:43.256Z,15.77
2018-01-14T14:04:48.056Z,17.23
2018-01-14T14:09:52.219Z,17.67
2018-01-14T14:14:55.670Z,17.40
2018-01-14T14:20:01.002Z,17.33
2018-01-14T14:25:03.979Z,18.30
2018-01-14T14:30:07.665Z,18.93
2018-01-14T14:35:11.951Z,21.17
2018-01-14T14:40:15.075Z,19.97
2018-01-14T14:45:19.059Z,21.60
2018-01-14T14:50:23.284Z,19.57
2018-01-14T14:55:26.128Z,19.07
2018-01-14T15:00:31.212Z,19.70
2018-01-14T15:05:34.595Z,20.77
2018-01-14T15:10:40.160Z,24.33
2018-01-14T15:15:43.896Z,22.77
2018-01-14T15:20:48.023Z,21.97
2018-01-14T15:25:52.706Z,20.60
2018-01-14T15:30:57.747Z,18.73
2018-01-14T15:36:01.057Z,23.23
2018-01-14T15:41:04.658Z,20.77
2018-01-14T15:46:07.563Z,23.87
2018-01-14T15:51:10.501Z,26.10
2018-01-14T15:56:13.682Z,25.10
2018-01-14T16:01:17.219Z,23.00
2018-01-14T16:06:20.685Z,23.90
2018-01-14T16:11:24.164Z,24.20
2018-01-14T16:16:26.961Z,22.70
2018-01-14T16:21:30.845Z,26.57
2018-01-14T16:26:33.923Z,23.07
2018-01-14T16:31:37.309Z,21.67
2018-01-14T16:36:41.238Z,22.87
2018-01-14T16:41:44.659Z,62.40
2018-01-14T16:46:47.444Z,21.30
2018-01-14T16:51:50.440Z,22.97
2018-01-14T16:56:54.066Z,23.87
2018-01-14T17:01:58.515Z,24.83
2018-01-14T17:07:01.351Z,24.40
2018-01-14T17:12:04.264Z,23.43
2018-01-14T17:17:06.902Z,24.50
2018-01-14T17:22:10.879Z,24.93
2018-01-14T17:27:13.613Z,27.80
2018-01-14T17:32:16.554Z,28.50
2018-01-14T17:37:20.096Z,27.37
2018-01-14T17:42:23.684Z,26.40
2018-01-14T17:47:27.078Z,24.67
2018-01-14T17:52:29.915Z,26.07
2018-01-14T17:57:33.037Z,24.27
2018-01-14T18:02:35.930Z,28.30
2018-01-14T18:07:38.749Z,27.80
2018-01-14T18:12:42.259Z,29.53
2018-01-14T18:17:45.008Z,25.87
2018-01-14T18:22:48.383Z,25.77
2018-01-14T18:27:51.591Z,24.80
2018-01-14T18:32:55.188Z,26.50
2018-01-14T18:37:58.611Z,26.43
2018-01-14T18:43:02.969Z,31.17
2018-01-14T18:48:05.764Z,29.23
2018-01-14T18:53:08.675Z,29.03
2018-01-14T18:58:11.442Z,29.80
2018-01-14T19:03:14.630Z,30.37
2018-01-14T19:08:18.698Z,29.53
2018-01-14T19:13:24.795Z,33.20
2018-01-14T19:18:28.162Z,29.63
2018-01-14T19:23:31.470Z,29.60
2018-01-14T19:28:34.381Z,34.03
2018-01-14T19:33:37.565Z,33.97
2018-01-14T19:44:12.847Z,33.77
2018-01-14T19:49:17.691Z,32.60
2018-01-14T19:54:22.349Z,32.93
2018-01-14T19:59:25.261Z,39.33
2018-01-14T20:04:29.198Z,36.57
2018-01-14T20:09:33.105Z,32.77
2018-01-14T20:14:38.610Z,38.00
2018-01-14T20:19:44.450Z,32.40
2018-01-14T20:24:51.136Z,34.50
2018-01-14T20:29:56.292Z,35.00
2018-01-14T20:34:59.288Z,36.83
2018-01-14T20:40:03.854Z,37.40
2018-01-14T20:45:07.572Z,40.43
2018-01-14T20:50:14.468Z,35.43
2018-01-14T20:55:17.888Z,38.17
2018-01-14T21:00:21.343Z,39.77
2018-01-14T21:05:26.814Z,34.27
2018-01-14T21:10:31.369Z,38.93
2018-01-14T21:15:34.431Z,39.77
2018-01-14T21:20:39.387Z,40.20
2018-01-14T21:25:44.266Z,39.77
2018-01-14T21:30:48.301Z,40.50
2018-01-14T21:35:53.104Z,40.60
2018-01-14T21:40:58.697Z,40.47
2018-01-14T21:46:01.992Z,45.00
2018-01-14T21:51:05.948Z,44.87
2018-01-14T21:56:15.325Z,42.30
2018-01-14T22:01:20.639Z,44.07
2018-01-14T22:06:28.870Z,54.37
2018-01-14T22:11:31.983Z,44.40
2018-01-14T22:16:35.615Z,47.67
2018-01-14T22:21:39.641Z,49.87
2018-01-14T22:26:42.775Z,46.87
2018-01-14T22:31:45.469Z,47.73
2018-01-14T22:36:48.550Z,47.30
2018-01-14T22:41:51.354Z,50.53
2018-01-14T22:46:55.173Z,48.27
2018-01-14T22:51:58.571Z,54.80
2018-01-14T22:57:01.502Z,45.63
2018-01-14T23:02:04.310Z,49.67
2018-01-14T23:07:07.636Z,55.17
2018-01-14T23:12:10.390Z,54.10
2018-01-14T23:17:13.489Z,51.40
2018-01-14T23:22:16.116Z,54.97
2018-01-14T23:27:19.656Z,55.30
2018-01-14T23:32:22.476Z,57.93
2018-01-14T23:37:25.772Z,53.33
2018-01-14T23:42:28.497Z,53.60
2018-01-14T23:47:31.626Z,58.10
2018-01-14T23:52:34.364Z,51.00
2018-01-14T23:57:38.543Z,56.20
